sensor_id;sensor_type;location;lat;lon;timestamp;pressure;altitude;pressure_sealevel;temperature;humidity
32875;BME280;40468;42.128;24.750;2022-12-07T00:00:44;99916.22;;;6.32;78.42
32875;BME280;40468;42.128;24.750;2022-12-07T00:02:15;99892.44;;;6.18;78.67
32875;BME280;40468;42.128;24.750;2022-12-07T00:03:48;99904.25;;;6.28;78.45
32875;BME280;40468;42.128;24.750;2022-12-07T00:05:20;99917.09;;;6.31;78.46
32875;BME280;40468;42.128;24.750;2022-12-07T00:06:53;99922.28;;;6.31;78.44
32875;BME280;40468;42.128;24.750;2022-12-07T00:08:25;99924.09;;;6.27;78.66
32875;BME280;40468;42.128;24.750;2022-12-07T00:09:56;99920.72;;;6.24;78.75
32875;BME280;40468;42.128;24.750;2022-12-07T00:11:28;99914.03;;;6.17;78.53
32875;BME280;40468;42.128;24.750;2022-12-07T00:13:00;99850.22;;;5.83;78.46
32875;BME280;40468;42.128;24.750;2022-12-07T00:14:32;99923.22;;;6.27;78.48
32875;BME280;40468;42.128;24.750;2022-12-07T00:16:05;99925.88;;;6.25;78.47
32875;BME280;40468;42.128;24.750;2022-12-07T00:17:38;99921.53;;;6.26;78.67
32875;BME280;40468;42.128;24.750;2022-12-07T00:19:11;99919.03;;;6.23;78.50
32875;BME280;40468;42.128;24.750;2022-12-07T00:20:43;99916.44;;;6.24;78.56
32875;BME280;40468;42.128;24.750;2022-12-07T00:22:16;99913.78;;;6.26;78.28
32875;BME280;40468;42.128;24.750;2022-12-07T00:23:49;99918.94;;;6.26;78.46
32875;BME280;40468;42.128;24.750;2022-12-07T00:25:21;99913.03;;;6.21;78.25
32875;BME280;40468;42.128;24.750;2022-12-07T00:26:53;99923.31;;;6.24;78.23
32875;BME280;40468;42.128;24.750;2022-12-07T00:28:25;99917.34;;;6.22;78.47
32875;BME280;40468;42.128;24.750;2022-12-07T00:29:57;99915.69;;;6.19;78.29
32875;BME280;40468;42.128;24.750;2022-12-07T00:31:31;99897.06;;;6.06;78.31
32875;BME280;40468;42.128;24.750;2022-12-07T00:33:03;99925.19;;;6.19;78.15
32875;BME280;40468;42.128;24.750;2022-12-07T00:34:35;99933.81;;;6.18;78.12
32875;BME280;40468;42.128;24.750;2022-12-07T00:36:09;99919.28;;;6.13;78.29
32875;BME280;40468;42.128;24.750;2022-12-07T00:37:41;99922.69;;;6.15;78.36
32875;BME280;40468;42.128;24.750;2022-12-07T00:39:13;99921.84;;;6.13;78.35
32875;BME280;40468;42.128;24.750;2022-12-07T00:40:54;99929.56;;;6.15;78.10
32875;BME280;40468;42.128;24.750;2022-12-07T00:42:26;99924.44;;;6.13;78.06
32875;BME280;40468;42.128;24.750;2022-12-07T00:43:58;99921.88;;;6.12;78.15
32875;BME280;40468;42.128;24.750;2022-12-07T00:45:29;99894.72;;;5.96;78.14
32875;BME280;40468;42.128;24.750;2022-12-07T00:47:01;99922.91;;;6.06;77.96
32875;BME280;40468;42.128;24.750;2022-12-07T00:48:33;99889.84;;;5.82;78.03
32875;BME280;40468;42.128;24.750;2022-12-07T00:50:06;99905.91;;;5.96;78.13
32875;BME280;40468;42.128;24.750;2022-12-07T00:51:38;99917.94;;;5.97;78.08
32875;BME280;40468;42.128;24.750;2022-12-07T00:53:11;99885.56;;;5.81;77.98
32875;BME280;40468;42.128;24.750;2022-12-07T00:54:42;99901.69;;;5.90;77.98
32875;BME280;40468;42.128;24.750;2022-12-07T00:56:16;99910.28;;;5.92;78.06
32875;BME280;40468;42.128;24.750;2022-12-07T00:57:48;99916.31;;;5.91;78.28
32875;BME280;40468;42.128;24.750;2022-12-07T00:59:20;99916.31;;;5.91;78.15
32875;BME280;40468;42.128;24.750;2022-12-07T01:00:52;99925.78;;;5.92;78.21
32875;BME280;40468;42.128;24.750;2022-12-07T01:02:24;99913.78;;;5.90;77.99
32875;BME280;40468;42.128;24.750;2022-12-07T01:03:55;99917.19;;;5.92;78.28
32875;BME280;40468;42.128;24.750;2022-12-07T01:05:27;99911.22;;;5.88;78.18
32875;BME280;40468;42.128;24.750;2022-12-07T01:06:59;99912.03;;;5.90;78.06
32875;BME280;40468;42.128;24.750;2022-12-07T01:08:33;99911.16;;;5.91;78.15
32875;BME280;40468;42.128;24.750;2022-12-07T01:10:05;99906.94;;;5.89;77.88
32875;BME280;40468;42.128;24.750;2022-12-07T01:11:37;99904.50;;;5.83;78.07
32875;BME280;40468;42.128;24.750;2022-12-07T01:13:09;99902.78;;;5.82;78.22
32875;BME280;40468;42.128;24.750;2022-12-07T01:14:41;99908.72;;;5.85;78.22
32875;BME280;40468;42.128;24.750;2022-12-07T01:16:15;99845.84;;;5.49;78.26
32875;BME280;40468;42.128;24.750;2022-12-07T01:17:46;99902.69;;;5.85;78.21
32875;BME280;40468;42.128;24.750;2022-12-07T01:19:18;99906.19;;;5.84;78.38
32875;BME280;40468;42.128;24.750;2022-12-07T01:20:57;99901.00;;;5.84;78.18
32875;BME280;40468;42.128;24.750;2022-12-07T01:22:28;99897.59;;;5.82;78.24
32875;BME280;40468;42.128;24.750;2022-12-07T01:24:02;99900.13;;;5.85;78.03
32875;BME280;40468;42.128;24.750;2022-12-07T01:25:34;99861.09;;;5.60;78.02
32875;BME280;40468;42.128;24.750;2022-12-07T01:27:06;99890.81;;;5.78;78.24
32875;BME280;40468;42.128;24.750;2022-12-07T01:28:38;99891.69;;;5.77;78.29
32875;BME280;40468;42.128;24.750;2022-12-07T01:30:10;99895.88;;;5.82;78.20
32875;BME280;40468;42.128;24.750;2022-12-07T01:31:42;99896.81;;;5.80;78.16
32875;BME280;40468;42.128;24.750;2022-12-07T01:33:14;99891.66;;;5.80;78.20
32875;BME280;40468;42.128;24.750;2022-12-07T01:34:47;99892.50;;;5.80;78.19
32875;BME280;40468;42.128;24.750;2022-12-07T01:36:21;99873.69;;;5.74;78.09
32875;BME280;40468;42.128;24.750;2022-12-07T01:37:53;99881.34;;;5.78;78.39
32875;BME280;40468;42.128;24.750;2022-12-07T01:39:26;99885.59;;;5.79;78.36
32875;BME280;40468;42.128;24.750;2022-12-07T01:40:59;99823.66;;;5.40;78.28
32875;BME280;40468;42.128;24.750;2022-12-07T01:42:31;99878.72;;;5.80;78.42
32875;BME280;40468;42.128;24.750;2022-12-07T01:44:21;99875.31;;;5.78;78.54
32875;BME280;40468;42.128;24.750;2022-12-07T01:45:53;99864.97;;;5.78;78.66
32875;BME280;40468;42.128;24.750;2022-12-07T01:47:24;99869.25;;;5.79;78.54
32875;BME280;40468;42.128;24.750;2022-12-07T01:48:56;99869.22;;;5.80;78.78
32875;BME280;40468;42.128;24.750;2022-12-07T01:50:28;99873.56;;;5.80;78.39
32875;BME280;40468;42.128;24.750;2022-12-07T01:52:13;99848.06;;;5.64;78.44
32875;BME280;40468;42.128;24.750;2022-12-07T01:53:46;99870.31;;;5.70;78.50
32875;BME280;40468;42.128;24.750;2022-12-07T01:55:18;99866.00;;;5.70;78.67
32875;BME280;40468;42.128;24.750;2022-12-07T01:56:52;99872.00;;;5.73;78.65
32875;BME280;40468;42.128;24.750;2022-12-07T01:58:25;99864.44;;;5.65;78.67
32875;BME280;40468;42.128;24.750;2022-12-07T01:59:57;99823.06;;;5.31;78.47
32875;BME280;40468;42.128;24.750;2022-12-07T02:01:30;99878.91;;;5.70;78.55
32875;BME280;40468;42.128;24.750;2022-12-07T02:03:05;99862.66;;;5.67;78.96
32875;BME280;40468;42.128;24.750;2022-12-07T02:04:38;99872.88;;;5.72;78.70
32875;BME280;40468;42.128;24.750;2022-12-07T02:06:12;99871.16;;;5.70;78.73
32875;BME280;40468;42.128;24.750;2022-12-07T02:07:46;99856.72;;;5.63;78.75
32875;BME280;40468;42.128;24.750;2022-12-07T02:09:19;99835.53;;;5.49;78.79
32875;BME280;40468;42.128;24.750;2022-12-07T02:10:52;99871.25;;;5.67;78.93
32875;BME280;40468;42.128;24.750;2022-12-07T02:12:24;99866.16;;;5.64;78.92
32875;BME280;40468;42.128;24.750;2022-12-07T02:13:56;99860.28;;;5.58;78.81
32875;BME280;40468;42.128;24.750;2022-12-07T02:15:37;99872.13;;;5.66;78.90
32875;BME280;40468;42.128;24.750;2022-12-07T02:17:15;99882.47;;;5.66;79.05
32875;BME280;40468;42.128;24.750;2022-12-07T02:19:03;99865.28;;;5.65;78.99
32875;BME280;40468;42.128;24.750;2022-12-07T02:20:43;99866.16;;;5.64;78.96
32875;BME280;40468;42.128;24.750;2022-12-07T02:22:40;99855.09;;;5.59;79.02
32875;BME280;40468;42.128;24.750;2022-12-07T02:24:45;99857.63;;;5.61;78.91
32875;BME280;40468;42.128;24.750;2022-12-07T02:26:45;99849.06;;;5.59;78.99
32875;BME280;40468;42.128;24.750;2022-12-07T02:28:27;99848.28;;;5.57;79.06
32875;BME280;40468;42.128;24.750;2022-12-07T02:30:03;99850.00;;;5.56;78.88
32875;BME280;40468;42.128;24.750;2022-12-07T02:31:37;99853.47;;;5.55;78.99
32875;BME280;40468;42.128;24.750;2022-12-07T02:33:16;99837.22;;;5.50;79.01
32875;BME280;40468;42.128;24.750;2022-12-07T02:34:51;99835.53;;;5.49;79.00
32875;BME280;40468;42.128;24.750;2022-12-07T02:36:36;99832.91;;;5.51;78.81
32875;BME280;40468;42.128;24.750;2022-12-07T02:38:14;99819.41;;;5.39;78.85
32875;BME280;40468;42.128;24.750;2022-12-07T02:39:51;99839.78;;;5.52;78.82
32875;BME280;40468;42.128;24.750;2022-12-07T02:41:26;99821.16;;;5.39;78.80
32875;BME280;40468;42.128;24.750;2022-12-07T02:43:04;99839.06;;;5.45;78.80
32875;BME280;40468;42.128;24.750;2022-12-07T02:44:39;99825.47;;;5.38;78.85
32875;BME280;40468;42.128;24.750;2022-12-07T02:46:15;99780.47;;;5.11;78.72
32875;BME280;40468;42.128;24.750;2022-12-07T02:47:51;99823.72;;;5.39;78.81
32875;BME280;40468;42.128;24.750;2022-12-07T02:49:24;99844.97;;;5.50;78.88
32875;BME280;40468;42.128;24.750;2022-12-07T02:50:58;99844.09;;;5.51;78.84
32875;BME280;40468;42.128;24.750;2022-12-07T02:52:30;99843.19;;;5.52;78.86
32875;BME280;40468;42.128;24.750;2022-12-07T02:54:02;99819.34;;;5.41;78.59
32875;BME280;40468;42.128;24.750;2022-12-07T02:55:37;99834.59;;;5.53;78.78
32875;BME280;40468;42.128;24.750;2022-12-07T02:57:32;99832.91;;;5.51;78.72
32875;BME280;40468;42.128;24.750;2022-12-07T02:59:16;99820.91;;;5.48;78.69
32875;BME280;40468;42.128;24.750;2022-12-07T03:00:56;99828.59;;;5.51;78.72
32875;BME280;40468;42.128;24.750;2022-12-07T03:02:38;99826.00;;;5.51;78.65
32875;BME280;40468;42.128;24.750;2022-12-07T03:04:24;99706.41;;;4.77;78.57
32875;BME280;40468;42.128;24.750;2022-12-07T03:06:16;99818.34;;;5.48;78.47
32875;BME280;40468;42.128;24.750;2022-12-07T03:07:59;99812.47;;;5.41;78.49
32875;BME280;40468;42.128;24.750;2022-12-07T03:09:36;99661.47;;;4.50;78.40
32875;BME280;40468;42.128;24.750;2022-12-07T03:11:12;99815.00;;;5.44;78.52
32875;BME280;40468;42.128;24.750;2022-12-07T03:12:53;99792.97;;;5.28;78.54
32875;BME280;40468;42.128;24.750;2022-12-07T03:14:30;99824.50;;;5.41;78.43
32875;BME280;40468;42.128;24.750;2022-12-07T03:16:09;99823.66;;;5.40;78.42
32875;BME280;40468;42.128;24.750;2022-12-07T03:17:46;99827.16;;;5.39;78.54
32875;BME280;40468;42.128;24.750;2022-12-07T03:19:20;99826.31;;;5.39;78.52
32875;BME280;40468;42.128;24.750;2022-12-07T03:21:02;99827.16;;;5.38;78.76
32875;BME280;40468;42.128;24.750;2022-12-07T03:22:38;99829.81;;;5.35;78.57
32875;BME280;40468;42.128;24.750;2022-12-07T03:24:14;99835.78;;;5.38;78.71
32875;BME280;40468;42.128;24.750;2022-12-07T03:25:49;99833.22;;;5.38;78.84
32875;BME280;40468;42.128;24.750;2022-12-07T03:27:27;99840.97;;;5.38;78.81
32875;BME280;40468;42.128;24.750;2022-12-07T03:29:07;99835.81;;;5.37;79.03
32875;BME280;40468;42.128;24.750;2022-12-07T03:30:43;99831.50;;;5.37;79.09
32875;BME280;40468;42.128;24.750;2022-12-07T03:32:21;99817.06;;;5.29;79.30
32875;BME280;40468;42.128;24.750;2022-12-07T03:34:01;99836.66;;;5.37;79.08
32875;BME280;40468;42.128;24.750;2022-12-07T03:35:39;99838.41;;;5.37;79.33
32875;BME280;40468;42.128;24.750;2022-12-07T03:37:17;99833.38;;;5.31;79.32
32875;BME280;40468;42.128;24.750;2022-12-07T03:38:54;99834.91;;;5.38;79.25
32875;BME280;40468;42.128;24.750;2022-12-07T03:40:33;99834.91;;;5.38;79.13
32875;BME280;40468;42.128;24.750;2022-12-07T03:42:07;99835.81;;;5.37;79.15
32875;BME280;40468;42.128;24.750;2022-12-07T03:43:41;99788.34;;;5.05;79.53
32875;BME280;40468;42.128;24.750;2022-12-07T03:45:13;99837.56;;;5.35;79.36
32875;BME280;40468;42.128;24.750;2022-12-07T03:46:50;99835.84;;;5.35;79.38
32875;BME280;40468;42.128;24.750;2022-12-07T03:48:28;99812.94;;;5.21;79.45
32875;BME280;40468;42.128;24.750;2022-12-07T03:50:07;99826.44;;;5.33;79.48
32875;BME280;40468;42.128;24.750;2022-12-07T03:51:46;99833.25;;;5.35;79.49
32875;BME280;40468;42.128;24.750;2022-12-07T03:53:25;99832.41;;;5.35;79.44
32875;BME280;40468;42.128;24.750;2022-12-07T03:55:03;99829.81;;;5.35;79.41
32875;BME280;40468;42.128;24.750;2022-12-07T03:56:38;99819.56;;;5.32;79.52
32875;BME280;40468;42.128;24.750;2022-12-07T03:58:14;99816.13;;;5.33;79.61
32875;BME280;40468;42.128;24.750;2022-12-07T03:59:47;99822.91;;;5.37;79.57
32875;BME280;40468;42.128;24.750;2022-12-07T04:01:19;99818.56;;;5.39;79.47
32875;BME280;40468;42.128;24.750;2022-12-07T04:02:51;99812.59;;;5.35;79.57
32875;BME280;40468;42.128;24.750;2022-12-07T04:04:24;99827.09;;;5.41;79.39
32875;BME280;40468;42.128;24.750;2022-12-07T04:05:58;99814.38;;;5.33;79.61
32875;BME280;40468;42.128;24.750;2022-12-07T04:07:31;99794.88;;;5.21;79.35
32875;BME280;40468;42.128;24.750;2022-12-07T04:09:02;99817.72;;;5.38;79.52
32875;BME280;40468;42.128;24.750;2022-12-07T04:10:34;99816.97;;;5.33;79.36
32875;BME280;40468;42.128;24.750;2022-12-07T04:12:05;99821.16;;;5.37;79.64
32875;BME280;40468;42.128;24.750;2022-12-07T04:13:37;99814.41;;;5.32;79.59
32875;BME280;40468;42.128;24.750;2022-12-07T04:15:23;99825.56;;;5.32;79.40
32875;BME280;40468;42.128;24.750;2022-12-07T04:16:56;99800.97;;;5.17;79.36
32875;BME280;40468;42.128;24.750;2022-12-07T04:18:29;99814.47;;;5.30;79.28
32875;BME280;40468;42.128;24.750;2022-12-07T04:20:00;99817.97;;;5.28;79.08
32875;BME280;40468;42.128;24.750;2022-12-07T04:21:34;99789.03;;;5.13;79.22
32875;BME280;40468;42.128;24.750;2022-12-07T04:23:05;99809.38;;;5.25;79.25
32875;BME280;40468;42.128;24.750;2022-12-07T04:24:36;99807.72;;;5.23;79.12
32875;BME280;40468;42.128;24.750;2022-12-07T04:26:08;99800.88;;;5.22;79.13
32875;BME280;40468;42.128;24.750;2022-12-07T04:27:40;99812.81;;;5.26;79.19
32875;BME280;40468;42.128;24.750;2022-12-07T04:29:13;99811.09;;;5.27;79.19
32875;BME280;40468;42.128;24.750;2022-12-07T04:30:45;99811.06;;;5.28;79.34
32875;BME280;40468;42.128;24.750;2022-12-07T04:32:17;99798.28;;;5.23;79.48
32875;BME280;40468;42.128;24.750;2022-12-07T04:33:49;99795.63;;;5.25;79.49
32875;BME280;40468;42.128;24.750;2022-12-07T04:35:20;99782.09;;;5.15;79.42
32875;BME280;40468;42.128;24.750;2022-12-07T04:36:53;99809.25;;;5.32;79.41
32875;BME280;40468;42.128;24.750;2022-12-07T04:38:24;99805.94;;;5.27;79.55
32875;BME280;40468;42.128;24.750;2022-12-07T04:39:56;99809.25;;;5.32;79.68
32875;BME280;40468;42.128;24.750;2022-12-07T04:41:28;99810.13;;;5.31;79.66
32875;BME280;40468;42.128;24.750;2022-12-07T04:42:59;99812.66;;;5.32;79.65
32875;BME280;40468;42.128;24.750;2022-12-07T04:44:31;99809.31;;;5.29;79.82
32875;BME280;40468;42.128;24.750;2022-12-07T04:46:02;99804.13;;;5.30;79.65
32875;BME280;40468;42.128;24.750;2022-12-07T04:47:34;99806.72;;;5.30;79.48
32875;BME280;40468;42.128;24.750;2022-12-07T04:49:05;99805.06;;;5.26;79.43
32875;BME280;40468;42.128;24.750;2022-12-07T04:50:36;99801.56;;;5.29;79.35
32875;BME280;40468;42.128;24.750;2022-12-07T04:52:10;99796.59;;;5.21;79.36
32875;BME280;40468;42.128;24.750;2022-12-07T04:53:42;99790.63;;;5.17;79.35
32875;BME280;40468;42.128;24.750;2022-12-07T04:55:13;99794.03;;;5.19;79.40
32875;BME280;40468;42.128;24.750;2022-12-07T04:56:45;99745.03;;;4.81;79.47
32875;BME280;40468;42.128;24.750;2022-12-07T04:58:17;99801.78;;;5.19;79.47
32875;BME280;40468;42.128;24.750;2022-12-07T04:59:49;99797.59;;;5.15;79.41
32875;BME280;40468;42.128;24.750;2022-12-07T05:01:22;99811.22;;;5.20;79.44
32875;BME280;40468;42.128;24.750;2022-12-07T05:02:54;99807.84;;;5.18;79.38
32875;BME280;40468;42.128;24.750;2022-12-07T05:04:26;99814.75;;;5.18;79.54
32875;BME280;40468;42.128;24.750;2022-12-07T05:05:57;99815.66;;;5.15;79.57
32875;BME280;40468;42.128;24.750;2022-12-07T05:07:31;99809.72;;;5.12;79.49
32875;BME280;40468;42.128;24.750;2022-12-07T05:09:03;99823.41;;;5.15;79.60
32875;BME280;40468;42.128;24.750;2022-12-07T05:10:35;99814.81;;;5.15;79.59
32875;BME280;40468;42.128;24.750;2022-12-07T05:12:07;99797.94;;;5.00;79.57
32875;BME280;40468;42.128;24.750;2022-12-07T05:13:39;99819.09;;;5.14;79.67
32875;BME280;40468;42.128;24.750;2022-12-07T05:15:10;99813.16;;;5.12;79.85
32875;BME280;40468;42.128;24.750;2022-12-07T05:16:42;99808.91;;;5.08;79.57
32875;BME280;40468;42.128;24.750;2022-12-07T05:18:15;99783.38;;;4.96;79.69
32875;BME280;40468;42.128;24.750;2022-12-07T05:19:47;99810.66;;;5.08;79.69
32875;BME280;40468;42.128;24.750;2022-12-07T05:21:19;99815.81;;;5.09;79.63
32875;BME280;40468;42.128;24.750;2022-12-07T05:22:52;99789.47;;;4.93;79.65
32875;BME280;40468;42.128;24.750;2022-12-07T05:24:24;99809.91;;;5.02;79.65
32875;BME280;40468;42.128;24.750;2022-12-07T05:25:56;99809.13;;;5.00;79.62
32875;BME280;40468;42.128;24.750;2022-12-07T05:27:29;99817.63;;;5.04;79.77
32875;BME280;40468;42.128;24.750;2022-12-07T05:29:01;99815.97;;;5.01;79.71
32875;BME280;40468;42.128;24.750;2022-12-07T05:30:33;99816.94;;;4.96;79.69
32875;BME280;40468;42.128;24.750;2022-12-07T05:32:05;99810.97;;;4.94;79.72
32875;BME280;40468;42.128;24.750;2022-12-07T05:33:37;99821.25;;;4.95;79.91
32875;BME280;40468;42.128;24.750;2022-12-07T05:35:09;99830.59;;;5.01;79.74
32875;BME280;40468;42.128;24.750;2022-12-07T05:36:41;99832.28;;;5.02;79.78
32875;BME280;40468;42.128;24.750;2022-12-07T05:38:14;99833.13;;;5.02;79.82
32875;BME280;40468;42.128;24.750;2022-12-07T05:39:46;99829.72;;;5.02;79.89
32875;BME280;40468;42.128;24.750;2022-12-07T05:41:18;99822.03;;;4.99;80.06
32875;BME280;40468;42.128;24.750;2022-12-07T05:43:07;99827.97;;;5.02;80.05
32875;BME280;40468;42.128;24.750;2022-12-07T05:44:39;99824.53;;;5.04;80.06
32875;BME280;40468;42.128;24.750;2022-12-07T05:46:10;99826.22;;;5.05;80.07
32875;BME280;40468;42.128;24.750;2022-12-07T05:47:42;99820.22;;;5.04;80.18
32875;BME280;40468;42.128;24.750;2022-12-07T05:49:14;99823.63;;;5.06;80.21
32875;BME280;40468;42.128;24.750;2022-12-07T05:50:47;99814.22;;;5.04;80.23
32875;BME280;40468;42.128;24.750;2022-12-07T05:52:19;99822.72;;;5.07;80.28
32875;BME280;40468;42.128;24.750;2022-12-07T05:53:52;99821.81;;;5.08;80.35
32875;BME280;40468;42.128;24.750;2022-12-07T05:55:23;99804.75;;;5.02;80.42
32875;BME280;40468;42.128;24.750;2022-12-07T05:56:55;99814.91;;;5.10;80.50
32875;BME280;40468;42.128;24.750;2022-12-07T05:58:27;99820.06;;;5.12;80.53
32875;BME280;40468;42.128;24.750;2022-12-07T06:00:16;99827.81;;;5.10;80.53
32875;BME280;40468;42.128;24.750;2022-12-07T06:01:49;99829.56;;;5.10;80.61
32875;BME280;40468;42.128;24.750;2022-12-07T06:03:21;99832.88;;;5.15;80.74
32875;BME280;40468;42.128;24.750;2022-12-07T06:04:52;99833.72;;;5.15;80.67
32875;BME280;40468;42.128;24.750;2022-12-07T06:06:24;99819.16;;;5.13;80.67
32875;BME280;40468;42.128;24.750;2022-12-07T06:07:55;99821.63;;;5.17;80.71
32875;BME280;40468;42.128;24.750;2022-12-07T06:09:29;99827.69;;;5.16;80.75
32875;BME280;40468;42.128;24.750;2022-12-07T06:11:00;99838.75;;;5.21;80.88
32875;BME280;40468;42.128;24.750;2022-12-07T06:12:50;99833.59;;;5.21;80.75
32875;BME280;40468;42.128;24.750;2022-12-07T06:14:21;99831.88;;;5.20;80.87
32875;BME280;40468;42.128;24.750;2022-12-07T06:15:52;99836.09;;;5.24;80.76
32875;BME280;40468;42.128;24.750;2022-12-07T06:17:24;99838.63;;;5.26;80.75
32875;BME280;40468;42.128;24.750;2022-12-07T06:18:56;99764.00;;;4.79;80.88
32875;BME280;40468;42.128;24.750;2022-12-07T06:20:28;99835.19;;;5.27;80.83
32875;BME280;40468;42.128;24.750;2022-12-07T06:22:00;99819.84;;;5.19;81.02
32875;BME280;40468;42.128;24.750;2022-12-07T06:23:33;99840.31;;;5.29;81.03
32875;BME280;40468;42.128;24.750;2022-12-07T06:25:07;99830.78;;;5.31;80.78
32875;BME280;40468;42.128;24.750;2022-12-07T06:26:39;99841.94;;;5.33;80.85
32875;BME280;40468;42.128;24.750;2022-12-07T06:28:11;99760.38;;;4.87;80.84
32875;BME280;40468;42.128;24.750;2022-12-07T06:29:43;99836.78;;;5.33;80.73
32875;BME280;40468;42.128;24.750;2022-12-07T06:31:15;99837.66;;;5.32;80.85
32875;BME280;40468;42.128;24.750;2022-12-07T06:32:46;99836.03;;;5.28;80.81
32875;BME280;40468;42.128;24.750;2022-12-07T06:34:20;99838.47;;;5.34;80.77
32875;BME280;40468;42.128;24.750;2022-12-07T06:35:53;99841.06;;;5.32;80.75
32875;BME280;40468;42.128;24.750;2022-12-07T06:37:25;99840.22;;;5.32;80.82
32875;BME280;40468;42.128;24.750;2022-12-07T06:38:57;99843.59;;;5.35;80.69
32875;BME280;40468;42.128;24.750;2022-12-07T06:40:30;99847.84;;;5.38;80.91
32875;BME280;40468;42.128;24.750;2022-12-07T06:42:02;99833.38;;;5.31;80.88
32875;BME280;40468;42.128;24.750;2022-12-07T06:43:34;99846.91;;;5.42;80.94
32875;BME280;40468;42.128;24.750;2022-12-07T06:45:07;99822.22;;;5.29;80.99
32875;BME280;40468;42.128;24.750;2022-12-07T06:46:39;99848.50;;;5.47;80.81
32875;BME280;40468;42.128;24.750;2022-12-07T06:48:10;99828.09;;;5.35;80.89
32875;BME280;40468;42.128;24.750;2022-12-07T06:49:42;99841.50;;;5.51;80.66
32875;BME280;40468;42.128;24.750;2022-12-07T06:51:14;99852.53;;;5.58;80.76
32875;BME280;40468;42.128;24.750;2022-12-07T06:52:46;99839.69;;;5.55;80.82
32875;BME280;40468;42.128;24.750;2022-12-07T06:54:18;99852.16;;;5.73;80.86
32875;BME280;40468;42.128;24.750;2022-12-07T06:55:52;99851.13;;;5.80;80.89
32875;BME280;40468;42.128;24.750;2022-12-07T06:57:23;99830.66;;;5.73;80.61
32875;BME280;40468;42.128;24.750;2022-12-07T06:58:55;99845.56;;;5.97;80.70
32875;BME280;40468;42.128;24.750;2022-12-07T07:00:28;99839.34;;;6.04;80.59
32875;BME280;40468;42.128;24.750;2022-12-07T07:02:00;99842.59;;;6.12;80.56
32875;BME280;40468;42.128;24.750;2022-12-07T07:03:32;99837.34;;;6.15;80.42
32875;BME280;40468;42.128;24.750;2022-12-07T07:05:04;99821.91;;;6.12;80.18
32875;BME280;40468;42.128;24.750;2022-12-07T07:06:36;99838.59;;;6.33;80.30
32875;BME280;40468;42.128;24.750;2022-12-07T07:08:08;99834.09;;;6.40;80.15
32875;BME280;40468;42.128;24.750;2022-12-07T07:09:40;99811.00;;;6.32;79.80
32875;BME280;40468;42.128;24.750;2022-12-07T07:11:13;99821.88;;;6.45;79.87
32875;BME280;40468;42.128;24.750;2022-12-07T07:12:45;99827.28;;;6.67;79.82
32875;BME280;40468;42.128;24.750;2022-12-07T07:14:17;99834.75;;;6.78;79.62
32875;BME280;40468;42.128;24.750;2022-12-07T07:15:49;99834.50;;;6.86;79.23
32875;BME280;40468;42.128;24.750;2022-12-07T07:17:21;99837.78;;;6.92;79.35
32875;BME280;40468;42.128;24.750;2022-12-07T07:18:53;99846.06;;;7.03;78.66
32875;BME280;40468;42.128;24.750;2022-12-07T07:20:25;99835.75;;;7.02;78.61
32875;BME280;40468;42.128;24.750;2022-12-07T07:21:58;99816.91;;;6.98;78.40
32875;BME280;40468;42.128;24.750;2022-12-07T07:23:30;99828.75;;;7.05;78.20
32875;BME280;40468;42.128;24.750;2022-12-07T07:25:02;99831.03;;;7.16;77.96
32875;BME280;40468;42.128;24.750;2022-12-07T07:26:36;99843.06;;;7.17;77.94
32875;BME280;40468;42.128;24.750;2022-12-07T07:28:07;99820.16;;;7.03;77.81
32875;BME280;40468;42.128;24.750;2022-12-07T07:29:39;99839.47;;;7.21;77.74
32875;BME280;40468;42.128;24.750;2022-12-07T07:31:11;99819.00;;;7.14;77.60
32875;BME280;40468;42.128;24.750;2022-12-07T07:32:43;99835.91;;;7.25;77.58
32875;BME280;40468;42.128;24.750;2022-12-07T07:34:15;99835.84;;;7.27;77.16
32875;BME280;40468;42.128;24.750;2022-12-07T07:35:47;99834.16;;;7.26;77.31
32875;BME280;40468;42.128;24.750;2022-12-07T07:37:18;99835.66;;;7.33;77.03
32875;BME280;40468;42.128;24.750;2022-12-07T07:38:50;99833.97;;;7.32;77.00
32875;BME280;40468;42.128;24.750;2022-12-07T07:40:23;99837.19;;;7.40;76.93
32875;BME280;40468;42.128;24.750;2022-12-07T07:41:57;99843.09;;;7.44;76.95
32875;BME280;40468;42.128;24.750;2022-12-07T07:43:28;99846.63;;;7.41;76.98
32875;BME280;40468;42.128;24.750;2022-12-07T07:45:00;99748.34;;;6.82;76.91
32875;BME280;40468;42.128;24.750;2022-12-07T07:46:32;99836.28;;;7.41;76.72
32875;BME280;40468;42.128;24.750;2022-12-07T07:48:04;99842.25;;;7.43;76.33
32875;BME280;40468;42.128;24.750;2022-12-07T07:49:37;99846.41;;;7.49;76.45
32875;BME280;40468;42.128;24.750;2022-12-07T07:51:08;99852.88;;;7.62;76.42
32875;BME280;40468;42.128;24.750;2022-12-07T07:52:40;99858.63;;;7.72;76.64
32875;BME280;40468;42.128;24.750;2022-12-07T07:54:12;99859.22;;;7.80;76.37
32875;BME280;40468;42.128;24.750;2022-12-07T07:55:50;99857.22;;;7.88;75.94
32875;BME280;40468;42.128;24.750;2022-12-07T07:57:23;99847.38;;;7.98;75.89
32875;BME280;40468;42.128;24.750;2022-12-07T07:58:55;99854.00;;;8.07;75.60
32875;BME280;40468;42.128;24.750;2022-12-07T08:00:27;99853.69;;;8.16;75.70
32875;BME280;40468;42.128;24.750;2022-12-07T08:01:59;99836.31;;;8.18;75.46
32875;BME280;40468;42.128;24.750;2022-12-07T08:03:31;99830.00;;;8.25;75.04
32875;BME280;40468;42.128;24.750;2022-12-07T08:05:03;99836.34;;;8.43;74.95
32875;BME280;40468;42.128;24.750;2022-12-07T08:06:35;99837.66;;;8.55;74.82
32875;BME280;40468;42.128;24.750;2022-12-07T08:08:07;99837.81;;;8.74;74.54
32875;BME280;40468;42.128;24.750;2022-12-07T08:09:39;99838.50;;;9.02;74.13
32875;BME280;40468;42.128;24.750;2022-12-07T08:11:11;99841.06;;;9.26;73.99
32875;BME280;40468;42.128;24.750;2022-12-07T08:12:44;99848.53;;;9.55;73.47
32875;BME280;40468;42.128;24.750;2022-12-07T08:14:34;99834.28;;;9.86;72.91
32875;BME280;40468;42.128;24.750;2022-12-07T08:16:07;99836.22;;;10.22;72.30
32875;BME280;40468;42.128;24.750;2022-12-07T08:17:40;99846.53;;;10.64;71.36